Time;durP1;ratioP1;P1;durP2;ratioP2;P2;SDS_P1;SDS_P2;PMS_P1;PMS_P2;Temp;Humidity;BMP_temperature;BMP_pressure;BME280_temperature;BME280_humidity;BME280_pressure;Samples;Min_cycle;Max_cycle;Signal;HPM_P1;HPM_P2
2023/06/24 00:01:34;;;;;;;4.93;3.55;;;14.80;99.90;;;;;;5131954;27;20035;-63
2023/06/24 00:04:01;;;;;;;5.10;3.60;;;14.80;99.90;;;;;;5133668;27;20043;-63
2023/06/24 00:06:28;;;;;;;5.97;3.67;;;14.80;99.90;;;;;;5133179;27;20038;-63
2023/06/24 00:09:00;;;;;;;5.70;3.35;;;14.80;99.90;;;;;;5133788;27;20031;-63
2023/06/24 00:11:29;;;;;;;6.65;4.20;;;14.80;99.90;;;;;;5124485;27;20047;-63
2023/06/24 00:13:56;;;;;;;7.57;4.25;;;14.80;99.90;;;;;;5114801;27;20040;-63
2023/06/24 00:16:26;;;;;;;7.00;3.85;;;14.80;99.90;;;;;;5133325;27;20042;-63
2023/06/24 00:18:58;;;;;;;6.45;4.70;;;14.80;99.90;;;;;;5132546;27;20043;-63
2023/06/24 00:21:29;;;;;;;4.50;3.60;;;14.90;99.90;;;;;;5132922;27;20043;-63
2023/06/24 00:24:04;;;;;;;6.75;3.95;;;15.00;99.90;;;;;;5133267;27;20051;-63
2023/06/24 00:26:31;;;;;;;4.93;3.47;;;15.00;99.90;;;;;;5133075;27;20051;-63
2023/06/24 00:28:59;;;;;;;7.10;3.50;;;15.00;99.90;;;;;;5130172;27;20039;-64
2023/06/24 00:31:25;;;;;;;4.90;3.47;;;14.90;99.90;;;;;;5132727;27;20039;-64
2023/06/24 00:33:52;;;;;;;7.30;4.22;;;14.90;99.90;;;;;;5114538;27;20051;-64
2023/06/24 00:36:20;;;;;;;5.47;3.60;;;14.90;99.90;;;;;;5130532;27;20085;-63
2023/06/24 00:38:48;;;;;;;5.43;3.70;;;14.80;99.90;;;;;;5132909;27;20043;-63
2023/06/24 00:41:19;;;;;;;;;;;14.80;99.90;;;;;;5132886;27;20388;-63
2023/06/24 00:43:46;;;;;;;10.45;4.97;;;14.80;99.90;;;;;;5114284;27;19919;-63
2023/06/24 00:46:13;;;;;;;;;;;14.80;99.90;;;;;;5130490;27;20047;-63
2023/06/24 00:48:40;;;;;;;9.38;4.20;;;14.70;99.90;;;;;;5124704;27;19926;-63
2023/06/24 00:51:07;;;;;;;6.47;4.20;;;14.70;99.90;;;;;;5113883;27;20047;-64
2023/06/24 00:53:34;;;;;;;6.93;4.22;;;14.60;99.90;;;;;;5132669;27;20035;-63
2023/06/24 00:56:02;;;;;;;7.50;3.58;;;14.60;99.90;;;;;;5123649;27;20055;-63
2023/06/24 00:58:32;;;;;;;6.32;3.85;;;14.60;99.90;;;;;;5122660;27;20376;-63
2023/06/24 01:00:59;;;;;;;6.45;4.13;;;14.70;99.90;;;;;;5110338;28;20090;-63
2023/06/24 01:03:26;;;;;;;6.97;4.28;;;14.70;99.90;;;;;;5130335;27;20133;-63
2023/06/24 01:05:56;;;;;;;;;;;14.70;99.90;;;;;;5131069;27;20031;-63
2023/06/24 01:08:23;;;;;;;7.05;4.10;;;14.80;99.90;;;;;;5111648;27;20367;-63
2023/06/24 01:10:53;;;;;;;6.95;4.13;;;14.80;99.90;;;;;;5113562;27;20046;-64
2023/06/24 01:13:22;;;;;;;8.07;4.60;;;14.70;99.90;;;;;;5105292;27;20062;-64
2023/06/24 01:15:48;;;;;;;7.35;4.18;;;14.70;99.90;;;;;;5112487;28;20057;-63
2023/06/24 01:18:46;;;;;;;7.88;4.00;;;14.70;99.90;;;;;;5132122;27;20043;-63
2023/06/24 01:21:31;;;;;;;11.60;5.18;;;14.70;99.90;;;;;;5126372;27;20596;-64
2023/06/24 01:24:07;;;;;;;6.43;4.35;;;14.60;99.90;;;;;;5102540;28;20491;-63
2023/06/24 01:26:52;;;;;;;7.65;4.40;;;14.60;99.90;;;;;;5112845;28;20050;-63
2023/06/24 01:29:57;;;;;;;6.03;4.25;;;14.50;99.90;;;;;;5123299;28;20455;-63
2023/06/24 01:32:34;;;;;;;5.60;4.13;;;14.50;99.90;;;;;;5040785;28;20041;-63
2023/06/24 01:35:20;;;;;;;12.68;4.28;;;14.40;99.90;;;;;;5031063;28;20148;-63
2023/06/24 01:37:52;;;;;;;7.32;4.80;;;14.50;99.90;;;;;;5073462;28;20035;-63
2023/06/24 01:40:37;;;;;;;9.40;4.90;;;14.50;99.90;;;;;;5132352;27;20143;-64
2023/06/24 01:43:08;;;;;;;9.32;4.13;;;14.40;99.90;;;;;;5128123;27;20023;-64
2023/06/24 01:45:47;;;;;;;8.27;4.40;;;14.40;99.90;;;;;;5129601;27;21353;-63
2023/06/24 01:48:19;;;;;;;8.13;4.78;;;14.50;99.90;;;;;;5110088;28;20035;-63
2023/06/24 01:51:15;;;;;;;7.70;4.20;;;14.50;99.90;;;;;;5112986;28;20526;-63
2023/06/24 01:53:48;;;;;;;4.90;3.78;;;14.50;99.90;;;;;;5129746;27;20047;-63
2023/06/24 01:59:01;;;;;;;9.82;4.22;;;14.50;99.90;;;;;;5033570;28;20379;-59
2023/06/24 02:01:31;;;;;;;6.80;4.30;;;14.50;99.90;;;;;;5027516;28;20049;-62
2023/06/24 02:03:59;;;;;;;9.15;4.45;;;14.50;99.90;;;;;;5010934;28;20463;-61
2023/06/24 02:06:29;;;;;;;6.60;3.97;;;14.60;99.90;;;;;;5010241;28;20038;-62
2023/06/24 02:08:58;;;;;;;10.45;3.88;;;14.60;99.90;;;;;;5011741;28;20058;-62
2023/06/24 02:11:28;;;;;;;8.50;3.58;;;14.60;99.90;;;;;;5009214;28;20132;-62
2023/06/24 02:13:55;;;;;;;6.35;3.97;;;14.60;99.90;;;;;;5036240;28;20046;-61
2023/06/24 02:16:23;;;;;;;;;;;14.70;99.90;;;;;;5009575;28;20056;-62
2023/06/24 02:18:51;;;;;;;9.90;3.65;;;14.70;99.90;;;;;;5010877;28;19921;-62
2023/06/24 02:21:19;;;;;;;8.85;3.72;;;14.70;99.90;;;;;;5010928;28;20487;-62
2023/06/24 02:23:48;;;;;;;6.32;4.00;;;14.70;99.90;;;;;;5011211;28;20030;-62
2023/06/24 02:26:15;;;;;;;4.57;3.47;;;14.70;99.90;;;;;;5009874;28;20129;-61
2023/06/24 02:28:46;;;;;;;7.90;3.92;;;14.70;99.90;;;;;;5012611;28;20096;-62
2023/06/24 02:31:14;;;;;;;5.90;4.28;;;14.70;99.90;;;;;;5040948;28;20099;-62
2023/06/24 02:33:41;;;;;;;7.88;3.88;;;14.60;99.90;;;;;;5013210;28;20462;-62
2023/06/24 02:36:09;;;;;;;7.82;4.13;;;14.60;99.90;;;;;;5029385;28;20060;-63
2023/06/24 02:38:36;;;;;;;6.60;4.22;;;14.50;99.90;;;;;;5014819;28;20052;-62
2023/06/24 02:41:04;;;;;;;;;;;14.50;99.90;;;;;;5024317;28;20046;-62
2023/06/24 02:43:32;;;;;;;5.55;3.70;;;14.50;99.90;;;;;;5014454;28;19926;-62
2023/06/24 02:46:02;;;;;;;7.93;3.70;;;14.50;99.90;;;;;;5035637;28;20100;-62
2023/06/24 02:48:31;;;;;;;6.45;3.45;;;14.50;99.90;;;;;;5046374;28;20066;-62
2023/06/24 02:50:59;;;;;;;7.18;3.97;;;14.60;99.90;;;;;;5028802;28;20133;-62
2023/06/24 02:53:27;;;;;;;8.30;4.57;;;14.60;99.90;;;;;;5034629;28;20046;-62
2023/06/24 02:55:56;;;;;;;6.25;3.80;;;14.60;99.90;;;;;;5028392;28;20045;-62
2023/06/24 02:58:27;;;;;;;11.05;4.50;;;14.50;99.90;;;;;;5042673;28;20056;-61
2023/06/24 03:01:00;;;;;;;8.98;4.70;;;14.50;99.90;;;;;;5030989;28;20136;-62
2023/06/24 03:03:31;;;;;;;7.32;4.10;;;14.40;99.90;;;;;;5011567;28;20132;-63
2023/06/24 03:05:59;;;;;;;7.18;4.10;;;14.90;99.90;;;;;;5039194;28;20041;-63
2023/06/24 03:08:29;;;;;;;6.50;3.72;;;14.40;99.90;;;;;;5012467;28;20045;-62
2023/06/24 03:10:58;;;;;;;11.02;4.32;;;14.40;99.90;;;;;;5014052;28;20030;-62
2023/06/24 03:13:28;;;;;;;6.07;3.65;;;14.50;99.90;;;;;;5042799;28;20049;-61
2023/06/24 03:16:15;;;;;;;5.88;3.67;;;14.50;99.90;;;;;;5039846;28;20096;-62
2023/06/24 03:19:16;;;;;;;5.45;4.00;;;14.50;99.90;;;;;;5012800;28;20124;-61
2023/06/24 03:21:44;;;;;;;;;;;14.60;99.90;;;;;;5042397;28;20046;-62
2023/06/24 03:24:13;;;;;;;7.85;4.18;;;14.60;99.90;;;;;;5012591;28;19967;-61
2023/06/24 03:26:41;;;;;;;6.10;4.18;;;14.50;99.90;;;;;;5035455;28;20046;-62
2023/06/24 03:29:11;;;;;;;8.95;4.40;;;14.40;99.90;;;;;;5037325;28;20077;-62
2023/06/24 03:31:45;;;;;;;6.63;4.20;;;14.40;99.90;;;;;;5035646;28;20439;-62
2023/06/24 03:34:17;;;;;;;5.55;4.22;;;14.30;99.90;;;;;;5041271;28;20067;-62
2023/06/24 03:36:44;;;;;;;11.38;4.47;;;14.30;99.90;;;;;;5012152;28;20065;-62
2023/06/24 03:39:13;;;;;;;7.95;4.40;;;14.30;99.90;;;;;;5036706;28;20111;-62
2023/06/24 03:41:40;;;;;;;6.55;5.00;;;14.30;99.90;;;;;;5011469;28;20069;-62
2023/06/24 03:44:07;;;;;;;9.52;4.35;;;14.30;99.90;;;;;;5039451;28;20120;-62
2023/06/24 03:46:35;;;;;;;8.27;4.97;;;14.30;99.90;;;;;;5010178;28;20051;-62
2023/06/24 03:49:02;;;;;;;6.63;4.63;;;14.30;99.90;;;;;;5028691;28;20077;-62
2023/06/24 03:51:29;;;;;;;;;;;14.40;99.90;;;;;;5027783;28;20042;-62
2023/06/24 03:53:56;;;;;;;7.35;4.78;;;14.40;99.90;;;;;;5013334;28;20420;-62
2023/06/24 03:56:23;;;;;;;7.55;4.95;;;14.40;99.90;;;;;;5031909;28;20077;-62
2023/06/24 03:58:50;;;;;;;7.13;5.03;;;14.30;99.90;;;;;;5013142;28;20114;-61
2023/06/24 04:01:18;;;;;;;8.05;4.18;;;14.40;99.90;;;;;;5039695;28;20096;-62
2023/06/24 04:03:46;;;;;;;6.20;4.78;;;14.40;99.90;;;;;;5011085;28;20096;-62
2023/06/24 04:06:14;;;;;;;8.88;4.80;;;14.40;99.90;;;;;;5034637;28;20565;-62
2023/06/24 04:08:42;;;;;;;12.77;5.90;;;14.50;99.90;;;;;;5012911;28;20125;-62
2023/06/24 04:11:09;;;;;;;7.63;5.00;;;14.50;99.90;;;;;;5038666;28;20061;-62
2023/06/24 04:13:36;;;;;;;7.60;5.38;;;14.60;99.90;;;;;;5012576;28;20038;-62
2023/06/24 04:16:04;;;;;;;7.47;4.78;;;14.60;99.90;;;;;;5029915;28;20099;-63
2023/06/24 04:18:33;;;;;;;8.43;4.68;;;14.60;99.90;;;;;;5009464;28;20133;-61
2023/06/24 04:21:00;;;;;;;8.15;4.72;;;14.70;99.90;;;;;;5012788;28;20057;-62
2023/06/24 04:23:28;;;;;;;7.43;4.13;;;14.70;99.90;;;;;;5034782;28;20084;-61
2023/06/24 04:25:54;;;;;;;6.53;4.68;;;14.60;99.90;;;;;;5012758;28;20124;-62
2023/06/24 04:28:21;;;;;;;6.10;3.80;;;14.60;99.90;;;;;;5031314;28;20049;-62
2023/06/24 04:30:49;;;;;;;7.32;3.55;;;14.50;99.90;;;;;;5019384;28;20045;-62
2023/06/24 04:33:16;;;;;;;4.20;3.15;;;14.60;99.90;;;;;;5039032;28;20049;-62
2023/06/24 04:35:46;;;;;;;;;;;14.50;99.90;;;;;;5017671;28;20498;-62
2023/06/24 04:38:17;;;;;;;6.28;3.55;;;14.60;99.90;;;;;;5011264;28;19921;-62
2023/06/24 04:40:46;;;;;;;5.13;3.83;;;14.60;99.90;;;;;;5010914;28;20070;-61
2023/06/24 04:43:12;;;;;;;5.68;3.28;;;14.60;99.90;;;;;;5010995;28;20038;-61
2023/06/24 04:45:39;;;;;;;5.63;3.60;;;14.80;99.90;;;;;;5012345;28;20467;-61
2023/06/24 04:48:06;;;;;;;5.75;3.22;;;14.80;99.90;;;;;;5010639;28;20038;-61
2023/06/24 04:50:33;;;;;;;4.55;3.20;;;14.80;99.90;;;;;;5010320;28;20037;-62
2023/06/24 04:53:01;;;;;;;5.00;2.83;;;14.70;99.90;;;;;;5009063;28;20045;-62
2023/06/24 04:55:31;;;;;;;4.57;3.35;;;14.80;99.90;;;;;;5010945;28;20045;-61
2023/06/24 04:57:58;;;;;;;4.22;2.95;;;14.90;99.90;;;;;;5011935;28;20050;-62
2023/06/24 05:00:25;;;;;;;6.35;3.30;;;14.90;99.90;;;;;;5010145;28;20048;-62
2023/06/24 05:02:52;;;;;;;5.38;3.45;;;15.00;99.90;;;;;;5011583;28;20402;-63
2023/06/24 05:05:20;;;;;;;4.78;2.58;;;15.10;99.90;;;;;;5010997;28;20050;-61
2023/06/24 05:07:47;;;;;;;5.03;3.20;;;15.10;99.90;;;;;;5011369;28;20120;-62
2023/06/24 05:10:14;;;;;;;4.78;3.28;;;15.10;99.90;;;;;;5010992;28;20100;-62
2023/06/24 05:12:41;;;;;;;7.15;3.55;;;15.10;99.90;;;;;;5011599;28;20449;-62
2023/06/24 05:15:09;;;;;;;3.88;3.25;;;15.10;99.90;;;;;;5011602;28;20034;-62
2023/06/24 05:17:36;;;;;;;5.38;3.17;;;15.20;99.90;;;;;;5010974;28;20077;-62
2023/06/24 05:20:03;;;;;;;5.68;3.90;;;15.20;99.90;;;;;;5012078;28;20499;-62
2023/06/24 05:22:30;;;;;;;7.70;3.42;;;15.20;99.90;;;;;;5008727;28;20045;-62
2023/06/24 05:24:57;;;;;;;7.90;4.10;;;15.20;99.90;;;;;;5011009;28;20052;-61
2023/06/24 05:27:24;;;;;;;5.85;3.75;;;15.10;99.90;;;;;;5010542;28;20541;-62
2023/06/24 05:29:50;;;;;;;7.85;3.83;;;15.10;99.90;;;;;;5010318;28;20053;-62
2023/06/24 05:32:19;;;;;;;12.23;4.50;;;15.10;99.90;;;;;;5010068;28;20042;-61
2023/06/24 05:34:47;;;;;;;7.13;3.70;;;15.10;99.90;;;;;;5011489;28;20046;-61
2023/06/24 05:37:14;;;;;;;6.68;3.97;;;15.20;99.90;;;;;;5011144;28;20398;-61
2023/06/24 05:39:41;;;;;;;5.50;3.80;;;15.20;99.90;;;;;;5011779;28;20054;-62
2023/06/24 05:42:07;;;;;;;5.47;3.90;;;15.20;99.90;;;;;;5009980;28;20060;-62
2023/06/24 05:44:34;;;;;;;6.80;3.58;;;15.40;99.90;;;;;;5011704;28;20050;-61
2023/06/24 05:47:01;;;;;;;9.15;3.63;;;15.40;99.90;;;;;;5010365;28;20431;-62
2023/06/24 05:49:27;;;;;;;8.25;4.03;;;15.50;99.90;;;;;;5011758;28;20454;-62
2023/06/24 05:51:55;;;;;;;9.07;3.78;;;15.60;99.90;;;;;;5010375;28;20125;-62
2023/06/24 05:54:22;;;;;;;7.93;3.80;;;15.60;99.90;;;;;;5010613;28;20065;-62
2023/06/24 05:56:49;;;;;;;9.13;3.80;;;15.80;99.90;;;;;;5011434;28;20065;-62
2023/06/24 05:59:15;;;;;;;5.50;3.35;;;15.80;99.90;;;;;;5011293;28;20446;-61
2023/06/24 06:01:42;;;;;;;6.55;4.18;;;15.80;99.90;;;;;;5009922;28;20065;-62
2023/06/24 06:04:09;;;;;;;6.28;3.92;;;15.80;99.90;;;;;;5013163;28;20056;-62
2023/06/24 06:06:36;;;;;;;5.25;3.83;;;15.90;99.90;;;;;;5015300;28;20135;-62
2023/06/24 06:09:03;;;;;;;6.90;4.18;;;16.00;99.90;;;;;;5015120;28;20483;-63
2023/06/24 06:11:30;;;;;;;;;;;16.00;99.90;;;;;;5014509;28;20057;-62
2023/06/24 06:13:56;;;;;;;7.43;3.70;;;16.10;99.90;;;;;;5015121;28;19921;-63
2023/06/24 06:16:23;;;;;;;5.50;3.75;;;16.20;99.90;;;;;;5013685;28;20042;-62
2023/06/24 06:18:50;;;;;;;6.93;4.00;;;16.20;99.90;;;;;;5015103;28;20042;-62
2023/06/24 06:21:17;;;;;;;6.00;3.65;;;16.30;99.90;;;;;;5014052;28;20410;-62
2023/06/24 06:23:43;;;;;;;4.55;3.72;;;16.30;99.90;;;;;;5013981;28;20064;-62
2023/06/24 06:26:10;;;;;;;5.80;4.55;;;16.40;99.90;;;;;;5015206;28;20048;-61
2023/06/24 06:28:37;;;;;;;8.48;4.90;;;16.60;99.90;;;;;;5012918;28;20042;-62
2023/06/24 06:31:03;;;;;;;10.30;5.63;;;16.70;99.90;;;;;;5014853;28;20046;-62
2023/06/24 06:33:30;;;;;;;8.80;4.82;;;16.80;99.90;;;;;;5013973;28;20050;-62
2023/06/24 06:35:57;;;;;;;10.90;5.43;;;16.90;99.90;;;;;;5013813;28;20034;-62
2023/06/24 06:38:24;;;;;;;8.57;5.28;;;17.00;99.90;;;;;;5040540;28;20060;-62
2023/06/24 06:40:51;;;;;;;13.38;5.35;;;17.10;99.90;;;;;;5014402;28;20050;-61
2023/06/24 06:43:17;;;;;;;7.88;5.30;;;17.20;99.90;;;;;;5013763;28;20042;-62
2023/06/24 06:45:44;;;;;;;9.40;5.18;;;17.40;99.90;;;;;;5013959;28;20053;-62
2023/06/24 06:48:11;;;;;;;8.38;5.35;;;17.50;99.90;;;;;;5014628;28;20042;-62
2023/06/24 06:50:38;;;;;;;10.43;4.63;;;17.70;99.90;;;;;;5014158;28;20050;-62
2023/06/24 06:53:04;;;;;;;8.32;5.18;;;17.80;99.90;;;;;;5013798;28;20042;-61
2023/06/24 06:55:31;;;;;;;7.38;4.70;;;17.80;99.90;;;;;;5013583;28;20037;-62
2023/06/24 06:57:58;;;;;;;9.43;4.60;;;17.80;99.90;;;;;;5014047;28;20104;-62
2023/06/24 07:00:25;;;;;;;8.05;4.68;;;17.70;99.90;;;;;;5013037;28;20046;-62
2023/06/24 07:02:52;;;;;;;7.85;4.20;;;17.70;99.90;;;;;;5012507;28;20057;-62
2023/06/24 07:05:18;;;;;;;6.70;4.70;;;17.60;99.90;;;;;;5013445;28;20038;-61
2023/06/24 07:07:46;;;;;;;6.32;3.90;;;17.60;99.90;;;;;;5012781;28;20521;-62
2023/06/24 07:10:13;;;;;;;6.70;4.68;;;17.50;99.90;;;;;;5014055;28;20077;-63
2023/06/24 07:12:40;;;;;;;5.55;4.45;;;17.60;99.90;;;;;;5013015;28;20125;-62
2023/06/24 07:15:07;;;;;;;6.20;4.47;;;17.40;99.90;;;;;;5013239;28;20060;-62
2023/06/24 07:17:35;;;;;;;10.18;4.57;;;17.40;99.90;;;;;;5012769;28;20050;-61
2023/06/24 07:20:02;;;;;;;6.75;4.28;;;17.40;99.90;;;;;;5005988;28;20089;-62
2023/06/24 07:22:30;;;;;;;;;;;17.40;99.90;;;;;;5013535;28;20052;-62
2023/06/24 07:24:57;;;;;;;7.55;4.38;;;17.30;99.90;;;;;;5013852;28;19930;-61
2023/06/24 07:27:24;;;;;;;9.07;4.43;;;17.50;99.90;;;;;;5012728;28;20038;-62
2023/06/24 07:29:51;;;;;;;9.35;4.45;;;17.50;99.90;;;;;;5013563;28;20050;-61
2023/06/24 07:32:17;;;;;;;6.60;4.68;;;17.60;99.90;;;;;;5011937;28;20042;-61
2023/06/24 07:34:44;;;;;;;6.65;4.22;;;17.70;99.90;;;;;;5013533;28;20124;-61
2023/06/24 07:37:11;;;;;;;10.70;4.47;;;17.60;99.90;;;;;;5012676;28;20056;-62
2023/06/24 07:39:49;;;;;;;9.75;5.18;;;17.60;99.90;;;;;;5010301;28;20538;-62
2023/06/24 07:42:18;;;;;;;8.32;4.53;;;17.60;99.90;;;;;;5029086;28;20052;-63
2023/06/24 07:44:46;;;;;;;8.32;4.90;;;17.60;99.90;;;;;;5012635;28;20059;-62
2023/06/24 07:47:13;;;;;;;10.85;4.43;;;17.70;99.90;;;;;;5011258;28;20402;-61
2023/06/24 07:49:40;;;;;;;9.65;4.55;;;17.80;99.90;;;;;;5010803;28;20042;-62
2023/06/24 07:52:07;;;;;;;6.88;4.20;;;17.90;99.90;;;;;;5012614;28;20056;-63
2023/06/24 07:54:34;;;;;;;6.82;4.45;;;17.90;99.90;;;;;;5012689;28;20117;-62
2023/06/24 07:57:01;;;;;;;7.13;4.70;;;17.90;99.90;;;;;;5008722;28;20072;-62
2023/06/24 07:59:28;;;;;;;;;;;17.80;99.90;;;;;;5010861;28;20508;-62
2023/06/24 08:01:55;;;;;;;8.40;4.55;;;17.80;99.90;;;;;;5010883;28;19927;-63
2023/06/24 08:04:21;;;;;;;7.13;4.38;;;17.70;99.90;;;;;;5012765;28;20421;-62
2023/06/24 08:06:48;;;;;;;8.48;4.63;;;17.70;99.90;;;;;;5009693;28;20073;-62
2023/06/24 08:09:16;;;;;;;10.88;5.40;;;17.80;99.90;;;;;;5011408;28;20122;-63
2023/06/24 08:11:44;;;;;;;11.70;4.78;;;17.90;99.90;;;;;;5012558;28;20398;-61
2023/06/24 08:14:10;;;;;;;;;;;18.00;99.90;;;;;;5012296;28;20057;-62
2023/06/24 08:16:37;;;;;;;7.90;4.50;;;18.20;99.90;;;;;;5011687;28;20020;-62
2023/06/24 08:19:04;;;;;;;7.53;4.35;;;18.30;99.90;;;;;;5012788;28;20046;-62
2023/06/24 08:21:31;;;;;;;11.70;4.85;;;18.50;99.90;;;;;;5010735;28;20072;-62
2023/06/24 08:23:58;;;;;;;9.82;4.65;;;18.60;99.90;;;;;;5012586;28;20050;-62
2023/06/24 08:26:24;;;;;;;5.35;4.00;;;18.70;99.90;;;;;;5011969;28;20046;-62
2023/06/24 08:28:51;;;;;;;6.93;4.22;;;18.90;99.90;;;;;;5012621;28;20044;-63
2023/06/24 08:31:18;;;;;;;10.15;4.15;;;19.20;99.90;;;;;;5011386;28;20037;-62
2023/06/24 08:33:45;;;;;;;5.45;4.32;;;19.50;99.90;;;;;;5012682;28;20054;-61
2023/06/24 08:36:12;;;;;;;;;;;19.80;99.90;;;;;;5012783;28;20121;-62
2023/06/24 08:38:39;;;;;;;8.52;4.55;;;20.10;99.90;;;;;;5011199;28;20476;-62
2023/06/24 08:41:06;;;;;;;6.97;4.47;;;20.20;99.90;;;;;;5012305;28;20038;-61
2023/06/24 08:43:32;;;;;;;7.70;4.35;;;20.30;99.90;;;;;;5011843;28;20406;-61
2023/06/24 08:45:59;;;;;;;5.95;4.32;;;20.50;99.90;;;;;;5008714;28;20045;-62
2023/06/24 08:48:28;;;;;;;5.40;4.05;;;20.50;99.90;;;;;;5006743;28;20048;-62
2023/06/24 08:50:57;;;;;;;6.50;4.85;;;20.50;99.90;;;;;;5011084;28;20045;-62
2023/06/24 08:53:26;;;;;;;7.85;4.60;;;20.60;99.90;;;;;;5010872;28;20037;-63
2023/06/24 08:55:54;;;;;;;7.82;4.32;;;20.90;99.90;;;;;;5011461;28;20042;-63
2023/06/24 08:58:21;;;;;;;;;;;21.00;99.90;;;;;;5012674;28;20044;-61
2023/06/24 09:00:48;;;;;;;6.63;4.85;;;21.20;99.90;;;;;;5010080;28;19931;-63
2023/06/24 09:03:14;;;;;;;;;;;21.20;99.90;;;;;;5012267;28;20065;-62
2023/06/24 09:05:44;;;;;;;6.53;3.88;;;21.20;99.90;;;;;;5010947;28;19975;-62
2023/06/24 09:08:11;;;;;;;9.00;4.53;;;21.30;99.90;;;;;;5012054;28;20042;-62
2023/06/24 09:10:38;;;;;;;6.95;4.40;;;21.30;99.90;;;;;;5010993;28;20545;-62
2023/06/24 09:13:06;;;;;;;;;;;21.30;99.90;;;;;;5012171;28;20037;-63
2023/06/24 09:15:34;;;;;;;9.27;4.25;;;21.10;99.90;;;;;;5010946;28;19921;-62
2023/06/24 09:18:03;;;;;;;5.80;4.53;;;21.00;99.90;;;;;;5011733;28;20104;-63
2023/06/24 09:20:31;;;;;;;8.68;4.43;;;20.90;99.90;;;;;;5010870;28;20049;-62
2023/06/24 09:23:03;;;;;;;5.80;4.47;;;20.90;99.90;;;;;;5011349;28;20042;-62
2023/06/24 09:25:30;;;;;;;5.78;3.80;;;21.00;99.90;;;;;;5011899;28;20037;-62
2023/06/24 09:28:03;;;;;;;5.90;4.38;;;21.00;99.90;;;;;;5010445;28;20045;-62
2023/06/24 09:30:30;;;;;;;5.65;4.03;;;20.90;99.90;;;;;;5009384;28;20044;-62
2023/06/24 09:32:57;;;;;;;6.38;4.35;;;21.20;99.90;;;;;;5007531;28;20538;-62
2023/06/24 09:35:25;;;;;;;7.90;4.28;;;21.40;99.90;;;;;;5011225;28;20092;-63
2023/06/24 09:37:57;;;;;;;7.55;4.35;;;21.60;99.90;;;;;;5010698;28;20034;-62
2023/06/24 09:40:24;;;;;;;4.03;3.58;;;21.60;99.90;;;;;;5014477;28;20056;-62
2023/06/24 09:42:51;;;;;;;8.20;4.10;;;21.50;99.90;;;;;;5014885;28;20045;-62
2023/06/24 09:45:21;;;;;;;5.38;3.90;;;21.60;99.90;;;;;;5015013;28;20038;-62
2023/06/24 09:47:47;;;;;;;6.50;4.03;;;21.60;99.90;;;;;;5012762;28;20037;-62
2023/06/24 09:50:14;;;;;;;5.70;4.35;;;21.70;99.90;;;;;;5011513;28;20069;-62
2023/06/24 09:52:44;;;;;;;9.43;4.50;;;21.80;99.90;;;;;;5014920;28;20038;-62
2023/06/24 09:55:14;;;;;;;6.93;4.00;;;21.90;99.90;;;;;;5011782;28;20041;-63
2023/06/24 09:57:46;;;;;;;6.82;3.90;;;21.70;99.90;;;;;;5014495;28;20048;-62
2023/06/24 10:00:15;;;;;;;6.13;3.90;;;21.60;99.90;;;;;;5014106;28;20064;-62
2023/06/24 10:02:43;;;;;;;7.28;3.92;;;21.40;99.90;;;;;;5014251;28;20502;-62
2023/06/24 10:05:10;;;;;;;6.63;4.10;;;21.30;99.90;;;;;;5013176;28;20050;-62
2023/06/24 10:07:38;;;;;;;5.72;3.63;;;21.20;99.90;;;;;;5012997;28;20042;-61
2023/06/24 10:10:06;;;;;;;5.78;4.13;;;21.40;99.90;;;;;;5013764;28;20052;-62
2023/06/24 10:12:34;;;;;;;8.30;3.72;;;21.70;99.90;;;;;;5014295;28;20406;-62
2023/06/24 10:15:02;;;;;;;5.85;3.70;;;21.90;99.90;;;;;;5011120;28;20064;-61
2023/06/24 10:17:30;;;;;;;5.82;3.70;;;22.10;99.90;;;;;;5014253;28;20038;-61
2023/06/24 10:19:57;;;;;;;4.32;3.00;;;22.10;99.90;;;;;;5010685;28;20034;-61
2023/06/24 10:22:25;;;;;;;7.70;3.28;;;21.90;99.90;;;;;;5013717;28;20560;-62
2023/06/24 10:24:53;;;;;;;5.10;3.17;;;21.80;99.90;;;;;;5011845;28;20046;-62
2023/06/24 10:27:22;;;;;;;4.57;3.10;;;22.10;99.90;;;;;;5014694;28;20044;-62
2023/06/24 10:29:50;;;;;;;5.05;2.50;;;22.30;99.90;;;;;;5012880;28;20117;-62
2023/06/24 10:32:18;;;;;;;3.20;2.25;;;22.30;99.90;;;;;;5013990;28;20049;-62
2023/06/24 10:34:47;;;;;;;4.22;2.42;;;22.40;99.90;;;;;;5013563;28;20117;-62
2023/06/24 10:37:22;;;;;;;5.68;3.20;;;22.60;99.90;;;;;;5009681;28;20087;-62
2023/06/24 10:40:02;;;;;;;3.75;2.58;;;22.70;99.90;;;;;;5011348;28;20048;-62
2023/06/24 10:42:31;;;;;;;3.70;2.70;;;22.70;99.90;;;;;;5013192;28;20137;-63
2023/06/24 10:45:00;;;;;;;2.53;2.30;;;22.70;99.90;;;;;;5013784;28;20038;-63
2023/06/24 10:47:28;;;;;;;3.85;2.55;;;22.80;99.90;;;;;;5013291;28;20041;-62
2023/06/24 10:49:55;;;;;;;3.95;2.80;;;23.20;99.00;;;;;;5013030;28;20065;-63
2023/06/24 10:52:22;;;;;;;;;;;23.70;99.90;;;;;;5006754;28;20025;-63
2023/06/24 10:54:51;;;;;;;3.53;2.70;;;23.70;99.90;;;;;;5012901;28;19975;-63
2023/06/24 10:57:26;;;;;;;4.15;2.97;;;23.70;99.90;;;;;;5014408;28;20037;-62
2023/06/24 10:59:54;;;;;;;3.88;2.65;;;23.80;99.90;;;;;;5012899;28;20066;-63
2023/06/24 11:02:26;;;;;;;3.95;2.50;;;23.60;99.90;;;;;;5012831;28;20042;-63
2023/06/24 11:04:54;;;;;;;5.30;2.38;;;23.50;97.10;;;;;;5013969;28;20057;-62
2023/06/24 11:07:23;;;;;;;2.85;2.22;;;23.50;97.80;;;;;;5013652;28;20030;-63
2023/06/24 11:09:58;;;;;;;5.03;3.10;;;23.70;98.40;;;;;;5012956;28;20038;-63
2023/06/24 11:12:27;;;;;;;3.50;2.50;;;23.80;96.70;;;;;;5013642;28;20038;-63
2023/06/24 11:14:58;;;;;;;5.55;2.42;;;23.50;97.30;;;;;;5011752;28;20619;-63
2023/06/24 11:17:26;;;;;;;4.55;2.92;;;23.30;98.10;;;;;;5013581;28;20062;-62
2023/06/24 11:19:54;;;;;;;4.55;3.08;;;23.20;98.20;;;;;;5009233;28;20476;-63
2023/06/24 11:22:22;;;;;;;3.88;2.67;;;23.20;99.20;;;;;;5011054;28;20613;-63
2023/06/24 11:24:48;;;;;;;5.75;2.67;;;23.20;98.60;;;;;;5012456;28;20061;-62
2023/06/24 11:27:15;;;;;;;4.65;2.40;;;23.20;98.80;;;;;;5024720;28;20050;-63
2023/06/24 11:29:44;;;;;;;;;;;23.40;97.50;;;;;;5012551;28;20398;-62
2023/06/24 11:32:11;;;;;;;4.95;2.58;;;23.80;96.20;;;;;;5012322;28;19921;-63
2023/06/24 11:34:38;;;;;;;3.10;2.45;;;24.00;95.40;;;;;;5010026;28;20113;-63
2023/06/24 11:37:18;;;;;;;3.67;2.70;;;24.00;96.20;;;;;;5012499;28;20491;-62
2023/06/24 11:39:59;;;;;;;3.33;2.80;;;23.60;96.20;;;;;;5010180;28;20042;-62
2023/06/24 11:42:29;;;;;;;5.25;2.45;;;23.30;96.00;;;;;;5009581;28;20049;-62
2023/06/24 11:45:00;;;;;;;3.42;2.33;;;23.00;96.10;;;;;;5012777;28;20387;-62
2023/06/24 11:47:30;;;;;;;2.90;2.38;;;22.90;93.00;;;;;;5010266;28;20057;-63
2023/06/24 11:49:58;;;;;;;3.60;2.67;;;23.00;95.10;;;;;;5010652;28;20078;-62
2023/06/24 11:52:43;;;;;;;4.43;2.65;;;22.60;93.10;;;;;;5006158;28;20042;-62
2023/06/24 11:55:21;;;;;;;2.83;2.45;;;22.60;92.30;;;;;;5012201;28;20045;-62
2023/06/24 11:57:52;;;;;;;3.40;2.67;;;23.20;93.50;;;;;;5010952;28;20391;-62
2023/06/24 12:00:21;;;;;;;3.40;2.70;;;23.70;94.00;;;;;;5009109;28;20030;-62
2023/06/24 12:02:51;;;;;;;4.50;2.70;;;23.90;94.30;;;;;;5011506;28;20057;-63
2023/06/24 12:05:28;;;;;;;4.40;3.08;;;24.20;94.10;;;;;;5011962;28;20399;-62
2023/06/24 12:07:56;;;;;;;3.80;2.58;;;24.30;94.00;;;;;;5006694;28;20038;-61
2023/06/24 12:10:24;;;;;;;5.40;2.70;;;24.30;93.90;;;;;;5012673;28;20046;-60
2023/06/24 12:12:51;;;;;;;2.90;2.47;;;24.40;93.00;;;;;;5011937;28;20042;-61
2023/06/24 12:15:17;;;;;;;;;;;24.50;93.30;;;;;;5013056;28;20037;-61
2023/06/24 12:17:44;;;;;;;3.83;3.20;;;24.30;89.30;;;;;;5007729;28;19921;-61
2023/06/24 12:20:13;;;;;;;3.78;2.65;;;24.30;90.60;;;;;;5012400;28;20564;-61
2023/06/24 12:22:40;;;;;;;5.93;2.55;;;24.20;90.70;;;;;;5009387;28;20509;-60
2023/06/24 12:25:08;;;;;;;3.75;2.80;;;23.90;90.30;;;;;;5011767;28;20420;-61
2023/06/24 12:27:35;;;;;;;3.25;2.30;;;24.10;90.40;;;;;;5009526;28;20074;-61
2023/06/24 12:30:02;;;;;;;;;;;24.50;89.90;;;;;;5011379;28;20042;-60
2023/06/24 12:32:29;;;;;;;3.35;2.72;;;24.50;91.10;;;;;;5008967;28;20213;-61
2023/06/24 12:34:55;;;;;;;3.55;3.03;;;24.90;90.70;;;;;;5011101;28;20037;-61
2023/06/24 12:37:22;;;;;;;3.65;2.80;;;25.00;93.00;;;;;;5011064;28;20038;-61
2023/06/24 12:39:51;;;;;;;8.18;2.90;;;25.20;91.00;;;;;;5010948;28;20052;-61
2023/06/24 12:42:17;;;;;;;3.15;2.50;;;25.40;90.60;;;;;;5011490;28;20059;-62
2023/06/24 12:44:44;;;;;;;;;;;25.70;89.30;;;;;;5010759;28;20041;-61
2023/06/24 12:47:11;;;;;;;3.38;2.83;;;25.90;90.40;;;;;;5009835;28;19921;-60
2023/06/24 12:49:38;;;;;;;4.20;3.00;;;26.10;89.30;;;;;;5010498;28;20071;-61
2023/06/24 12:52:04;;;;;;;3.60;2.70;;;26.20;87.20;;;;;;5009182;28;20057;-61
2023/06/24 12:54:31;;;;;;;3.47;3.15;;;26.30;90.00;;;;;;5010481;28;20037;-61
2023/06/24 12:56:58;;;;;;;3.55;2.88;;;26.20;90.00;;;;;;5007362;28;20392;-61
2023/06/24 12:59:39;;;;;;;4.80;2.65;;;26.30;88.40;;;;;;5036267;28;20137;-61
2023/06/24 13:02:06;;;;;;;3.00;2.70;;;25.70;85.80;;;;;;5009701;28;20038;-60